Rogers, AR

2:07 PM CST on December 27, 2014 (GMT -0600)
Rogers Municipal-Carter | Change Station
CLOSE
Current Station
Airport
Location: Rogers,
Elevation: 1358 ft
Nearby Weather Stations

Elev 1358 ft 36.37 °N, 94.11 °W | Updated 8 minutes ago

Overcast
Overcast
34 °F
Feels Like 27 °F
N
8
Wind Variable Wind from NW

Today
High -- | Low -- °F
--% Chance of Precip.
Yesterday
High -- | Low -- °F
Precip. -- in
7:26 AM 5:08 PM
Waxing Crescent, 39% visible
Pressure 30.19 in
Visibility 10.0 miles
Clouds Overcast 400 ft
Windchill 27 °F
Dew Point 33 °F
Humidity 96%
Rainfall 0.16 in
Snow Depth Not available.
UV 1 out of 12
Pollen 5.50 out of 12
Air Quality Not available.
Flu Activity Not available.
METAR KROG 271959Z 31007KT 10SM -RA OVC004 01/01 A3017 RMK AO2 RAB04 SLP221 P0000 T00110006

More Conditions Fewer Conditions

Pressure 30.19 in
Visibility 10.0 miles
Clouds Overcast 400 ft
Windchill 27 °F
Dew Point 33 °F
Humidity 96%
Rainfall 0.16 in
Snow Depth Not available.
UV 1 out of 12
Pollen 5.50 out of 12
Air Quality Not available.
Flu Activity Not available.
METAR KROG 271959Z 31007KT 10SM -RA OVC004 01/01 A3017 RMK AO2 RAB04 SLP221 P0000 T00110006

More Conditions Fewer Conditions

Nowcast | as of 12:59 PM CST on December 27, 2014

At 12:50 PM... National Weather Service Doppler radars indicated bands of light to moderate snow occurring mainly along the I 44 corridor stretched from south central Oklahoma to the extreme northeast part of the state. Movement was to the northeast at around 30 mph. Through 3 PM... a band of light to moderate snow is expected to head northeast... roughly along I 44. Another 1 inch of snow could fall in the Tulsa area including parts of Okfuskee... Okmulgee... and creek counties as well. Locations along the I 44 corridor to the north and east of Tulsa will likely be affected. Widespread travel problems are not anticipated... as most of the snow accumulation will occur on grassy or elevated surfaces

×

10-Day Weather Forecast

Almanac

Astronomy

Dec. 27, 2014 Rise Set
Actual Time
Civil Twilight
Nautical Twilight
Astronomical Twilight
Moon
Length of Visible Light
Length of Day
Tomorrow will be .
, % of the Moon is Illuminated

Today's Extremes

State Highs State Lows

Community

WunderPhotos

Upload Photos

1,781,033 photos uploaded!

WunderBlogs® & News

Nearby

Air Quality

  Air Quality AQ Index Pollutant
Not available.

Snow Depth

Station Depth Elevation

Earthquake Activity

City Distance Mag. Time & Date
Minimum magnitude displayed is 2.5.

Coastal Water Temperatures

Place Temperature

Nearby Weather Stations